Time,TemperatureF,DewpointF,PressureIn,WindDirection,WindDirectionDegrees,WindSpeedMPH,WindSpeedGustMPH,Humidity,HourlyPrecipIn,Conditions,Clouds,dailyrainin,SoftwareType,DateUTC
2013-02-21 00:01:00,40.0,34.0,-100.00,North,-999,-999.0,-999.0,80,-99.99,,,-99.99,,2013-02-21 08:01:00,
2013-02-21 00:31:00,39.0,34.0,-100.00,North,-999,-999.0,-999.0,80,-99.99,,,-99.99,,2013-02-21 08:31:00,
2013-02-21 00:41:00,38.0,34.0,-100.00,North,-999,-999.0,-999.0,84,-99.99,,,-99.99,,2013-02-21 08:41:00,
2013-02-21 00:52:00,38.0,34.0,-100.00,North,-999,-999.0,-999.0,84,-99.99,,,-99.99,,2013-02-21 08:52:00,
2013-02-21 01:01:00,39.0,34.0,-100.00,North,-999,-999.0,-999.0,82,-99.99,,,-99.99,,2013-02-21 09:01:00,
2013-02-21 01:11:00,38.0,33.0,-100.00,North,-999,-999.0,-999.0,82,-99.99,,,-99.99,,2013-02-21 09:11:00,
2013-02-21 01:22:00,-999.0,-99.9,-100.00,North,5,1.0,-999.0,-999,-99.99,,,-99.99,,2013-02-21 09:22:00,
2013-02-21 01:41:00,38.0,34.0,-100.00,North,-999,-999.0,-999.0,85,-99.99,,,0.00,,2013-02-21 09:41:00,
2013-02-21 01:51:00,38.0,34.0,-100.00,North,-999,-999.0,-999.0,85,-99.99,,,0.00,,2013-02-21 09:51:00,
2013-02-21 02:51:00,38.0,33.0,-100.00,North,-999,-999.0,-999.0,83,-99.99,,,-99.99,,2013-02-21 10:51:00,
2013-02-21 03:00:00,38.0,33.0,-100.00,North,-999,-999.0,-999.0,83,-99.99,,,-99.99,,2013-02-21 11:00:00,
2013-02-21 03:11:00,-999.0,-99.9,-100.00,NW,309,1.0,-999.0,-999,-99.99,,,-99.99,,2013-02-21 11:11:00,
2013-02-21 03:21:00,-999.0,-99.9,-100.00,NW,309,1.0,-999.0,-999,-99.99,,,-99.99,,2013-02-21 11:21:00,
2013-02-21 03:31:00,-999.0,-99.9,-100.00,NW,309,1.0,-999.0,-999,-99.99,,,-99.99,,2013-02-21 11:31:00,
2013-02-21 04:11:00,37.0,29.0,-100.00,North,-999,-999.0,-999.0,73,-99.99,,,-99.99,,2013-02-21 12:11:00,
2013-02-21 04:21:00,37.0,29.0,-100.00,North,-999,-999.0,-999.0,73,-99.99,,,-99.99,,2013-02-21 12:21:00,
2013-02-21 04:32:00,37.0,29.0,-100.00,North,-999,-999.0,-999.0,73,-99.99,,,-99.99,,2013-02-21 12:32:00,
2013-02-21 04:42:00,37.0,29.0,-100.00,North,-999,-999.0,-999.0,73,-99.99,,,-99.99,,2013-02-21 12:42:00,
2013-02-21 05:01:00,36.0,29.0,-100.00,North,-999,-999.0,-999.0,75,-99.99,,,-99.99,,2013-02-21 13:01:00,
2013-02-21 05:12:00,-999.0,-99.9,-100.00,NNW,343,2.0,-999.0,76,-99.99,,,-99.99,,2013-02-21 13:12:00,
2013-02-21 05:22:00,-999.0,-99.9,-100.00,NNW,343,2.0,-999.0,76,-99.99,,,-99.99,,2013-02-21 13:22:00,
2013-02-21 06:02:00,36.0,29.0,-100.00,North,-999,-999.0,-999.0,74,-99.99,,,-99.99,,2013-02-21 14:02:00,
2013-02-21 06:11:00,35.0,28.0,-100.00,North,-999,-999.0,-999.0,74,-99.99,,,-99.99,,2013-02-21 14:11:00,
2013-02-21 06:21:00,35.0,28.0,-100.00,North,-999,-999.0,-999.0,74,-99.99,,,-99.99,,2013-02-21 14:21:00,
2013-02-21 06:32:00,-999.0,-99.9,-100.00,West,281,2.0,-999.0,-999,-99.99,,,-99.99,,2013-02-21 14:32:00,
2013-02-21 07:12:00,37.0,25.0,-100.00,North,-999,-999.0,-999.0,62,-99.99,,,-99.99,,2013-02-21 15:12:00,
2013-02-21 07:22:00,-999.0,-99.9,-100.00,West,281,3.0,-999.0,-999,-99.99,,,-99.99,,2013-02-21 15:22:00,
2013-02-21 08:01:00,38.0,24.0,-100.00,North,-999,-999.0,-999.0,56,-99.99,,,-99.99,,2013-02-21 16:01:00,
2013-02-21 08:12:00,39.0,23.0,-100.00,North,-999,-999.0,-999.0,53,-99.99,,,-99.99,,2013-02-21 16:12:00,
2013-02-21 08:21:00,39.0,23.0,-100.00,North,-999,-999.0,-999.0,53,-99.99,,,-99.99,,2013-02-21 16:21:00,
2013-02-21 08:32:00,-999.0,-99.9,-100.00,North,0,2.0,-999.0,-999,-99.99,,,-99.99,,2013-02-21 16:32:00,
2013-02-21 08:42:00,41.0,22.0,-100.00,North,-999,-999.0,-999.0,45,-99.99,,,-99.99,,2013-02-21 16:42:00,
2013-02-21 08:52:00,41.0,22.0,-100.00,North,-999,-999.0,-999.0,45,-99.99,,,-99.99,,2013-02-21 16:52:00,
2013-02-21 09:11:00,43.0,21.0,-100.00,North,-999,-999.0,-999.0,41,-99.99,,,-99.99,,2013-02-21 17:11:00,
2013-02-21 09:21:00,43.0,21.0,-100.00,North,-999,-999.0,-999.0,41,-99.99,,,-99.99,,2013-02-21 17:21:00,
2013-02-21 09:32:00,-999.0,-99.9,-100.00,WSW,253,2.0,-999.0,-999,-99.99,,,-99.99,,2013-02-21 17:32:00,
2013-02-21 09:41:00,43.0,21.0,-100.00,North,-999,-999.0,-999.0,41,-99.99,,,-99.99,,2013-02-21 17:41:00,
2013-02-21 09:52:00,43.0,21.0,-100.00,North,-999,-999.0,-999.0,41,-99.99,,,-99.99,,2013-02-21 17:52:00,
2013-02-21 10:01:00,45.0,21.0,-100.00,North,-999,-999.0,-999.0,38,-99.99,,,-99.99,,2013-02-21 18:01:00,
2013-02-21 10:31:00,46.0,19.0,-100.00,North,-999,-999.0,-999.0,34,-99.99,,,-99.99,,2013-02-21 18:31:00,
2013-02-21 10:42:00,46.0,19.0,-100.00,North,-999,-999.0,-999.0,34,-99.99,,,-99.99,,2013-02-21 18:42:00,
2013-02-21 10:52:00,46.0,19.0,-100.00,North,-999,-999.0,-999.0,34,-99.99,,,-99.99,,2013-02-21 18:52:00,
2013-02-21 11:02:00,-999.0,-99.9,-100.00,SSW,196,4.0,-999.0,-999,-99.99,,,-99.99,,2013-02-21 19:02:00,
2013-02-21 11:42:00,-999.0,-99.9,-100.00,SE,140,4.0,-999.0,-999,-99.99,,,-99.99,,2013-02-21 19:42:00,
2013-02-21 12:11:00,50.0,17.0,-100.00,North,-999,-999.0,-999.0,26,-99.99,,,-99.99,,2013-02-21 20:11:00,
2013-02-21 12:21:00,50.0,17.0,-100.00,North,-999,-999.0,-999.0,26,-99.99,,,-99.99,,2013-02-21 20:21:00,
2013-02-21 12:32:00,-999.0,-99.9,-100.00,West,281,4.0,-999.0,-999,-99.99,,,-99.99,,2013-02-21 20:32:00,
2013-02-21 12:41:00,51.0,11.0,-100.00,North,-999,-999.0,-999.0,19,-99.99,,,-99.99,,2013-02-21 20:41:00,
2013-02-21 12:52:00,51.0,11.0,-100.00,North,-999,-999.0,-999.0,19,-99.99,,,-99.99,,2013-02-21 20:52:00,
2013-02-21 13:02:00,50.0,-99.9,-100.00,East,90,5.0,-999.0,-999,-99.99,,,-99.99,,2013-02-21 21:02:00,
2013-02-21 13:11:00,51.0,10.0,-100.00,North,-999,-999.0,-999.0,18,-99.99,,,-99.99,,2013-02-21 21:11:00,
2013-02-21 13:22:00,-999.0,-99.9,-100.00,NNE,28,5.0,-999.0,-999,-99.99,,,-99.99,,2013-02-21 21:22:00,
2013-02-21 13:32:00,-999.0,-99.9,-100.00,NNE,28,5.0,-999.0,-999,-99.99,,,-99.99,,2013-02-21 21:32:00,
2013-02-21 13:41:00,51.0,12.0,-100.00,North,-999,-999.0,-999.0,20,-99.99,,,0.00,,2013-02-21 21:41:00,
2013-02-21 13:51:00,51.0,12.0,-100.00,North,-999,-999.0,-999.0,20,-99.99,,,0.00,,2013-02-21 21:51:00,
2013-02-21 14:02:00,-999.0,-99.9,-100.00,South,191,4.0,-999.0,-999,-99.99,,,-99.99,,2013-02-21 22:02:00,
2013-02-21 14:11:00,53.0,14.0,-100.00,North,-999,-999.0,-999.0,20,-99.99,,,-99.99,,2013-02-21 22:11:00,
2013-02-21 14:21:00,53.0,14.0,-100.00,North,-999,-999.0,-999.0,20,-99.99,,,-99.99,,2013-02-21 22:21:00,
2013-02-21 14:32:00,-999.0,-99.9,-100.00,NNW,343,5.0,-999.0,-999,-99.99,,,-99.99,,2013-02-21 22:32:00,
2013-02-21 15:01:00,-999.0,-99.9,-100.00,NE,50,6.0,-999.0,-999,-99.99,,,-99.99,,2013-02-21 23:01:00,
2013-02-21 15:22:00,-999.0,-99.9,-100.00,West,264,6.0,-999.0,-999,-99.99,,,-99.99,,2013-02-21 23:22:00,
2013-02-21 15:42:00,-999.0,-99.9,-100.00,North,5,7.0,-999.0,-999,-99.99,,,-99.99,,2013-02-21 23:42:00,
2013-02-21 15:53:00,-999.0,-99.9,-100.00,NNW,337,11.0,-999.0,-999,-99.99,,,-99.99,,2013-02-21 23:53:00,
2013-02-21 16:02:00,-999.0,-99.9,-100.00,NNW,337,11.0,-999.0,-999,-99.99,,,-99.99,,2013-02-22 00:02:00,
2013-02-21 16:11:00,-999.0,-99.9,-100.00,North,5,8.0,-999.0,-999,-99.99,,,-99.99,,2013-02-22 00:11:00,
2013-02-21 16:22:00,-999.0,-99.9,-100.00,North,5,8.0,-999.0,-999,-99.99,,,-99.99,,2013-02-22 00:22:00,
2013-02-21 16:32:00,-999.0,-99.9,-100.00,North,11,8.0,-999.0,-999,-99.99,,,-99.99,,2013-02-22 00:32:00,
2013-02-21 16:42:00,-999.0,-99.9,-100.00,North,11,8.0,-999.0,-999,-99.99,,,-99.99,,2013-02-22 00:42:00,
2013-02-21 16:52:00,-999.0,-99.9,-100.00,North,11,8.0,-999.0,-999,-99.99,,,-99.99,,2013-02-22 00:52:00,
2013-02-21 17:01:00,-999.0,-99.9,-100.00,SSE,157,6.0,-999.0,-999,-99.99,,,-99.99,,2013-02-22 01:01:00,
2013-02-21 17:11:00,51.0,12.0,-100.00,North,-999,-999.0,-999.0,20,-99.99,,,-99.99,,2013-02-22 01:11:00,
2013-02-21 17:21:00,51.0,12.0,-100.00,North,-999,-999.0,-999.0,20,-99.99,,,-99.99,,2013-02-22 01:21:00,
2013-02-21 17:32:00,50.0,12.0,-100.00,North,-999,-999.0,-999.0,20,-99.99,,,-99.99,,2013-02-22 01:32:00,
2013-02-21 17:42:00,49.0,12.0,-100.00,North,-999,-999.0,-999.0,22,-99.99,,,-99.99,,2013-02-22 01:42:00,
2013-02-21 17:52:00,49.0,12.0,-100.00,North,-999,-999.0,-999.0,22,-99.99,,,-99.99,,2013-02-22 01:52:00,
2013-02-21 18:01:00,48.0,12.0,-100.00,North,-999,-999.0,-999.0,23,-99.99,,,-99.99,,2013-02-22 02:01:00,
2013-02-21 18:11:00,48.0,12.0,-100.00,North,-999,-999.0,-999.0,23,-99.99,,,-99.99,,2013-02-22 02:11:00,
2013-02-21 18:22:00,-999.0,-99.9,-100.00,SE,146,4.0,-999.0,-999,-99.99,,,-99.99,,2013-02-22 02:22:00,
2013-02-21 18:31:00,47.0,12.0,-100.00,North,-999,-999.0,-999.0,24,-99.99,,,-99.99,,2013-02-22 02:31:00,
2013-02-21 18:42:00,46.0,12.0,-100.00,North,-999,-999.0,-999.0,25,-99.99,,,-99.99,,2013-02-22 02:42:00,
2013-02-21 18:52:00,46.0,12.0,-100.00,North,-999,-999.0,-999.0,25,-99.99,,,-99.99,,2013-02-22 02:52:00,
2013-02-21 19:11:00,44.0,14.0,-100.00,North,-999,-999.0,-999.0,28,-99.99,,,-99.99,,2013-02-22 03:11:00,
2013-02-21 19:21:00,44.0,14.0,-100.00,North,-999,-999.0,-999.0,28,-99.99,,,-99.99,,2013-02-22 03:21:00,
2013-02-21 19:31:00,43.0,13.0,-100.00,North,-999,-999.0,-999.0,29,-99.99,,,-99.99,,2013-02-22 03:31:00,
2013-02-21 19:41:00,44.0,15.0,-100.00,North,-999,-999.0,-999.0,30,-99.99,,,-99.99,,2013-02-22 03:41:00,
2013-02-21 19:52:00,44.0,15.0,-100.00,North,-999,-999.0,-999.0,30,-99.99,,,-99.99,,2013-02-22 03:52:00,
2013-02-21 20:11:00,-999.0,-99.9,-100.00,WNW,292,1.0,-999.0,-999,-99.99,,,-99.99,,2013-02-22 04:11:00,
2013-02-21 20:22:00,-999.0,-99.9,-100.00,WNW,292,1.0,-999.0,-999,-99.99,,,-99.99,,2013-02-22 04:22:00,
2013-02-21 20:31:00,43.0,14.0,-100.00,North,-999,-999.0,-999.0,30,-99.99,,,-99.99,,2013-02-22 04:31:00,
2013-02-21 21:42:00,41.0,-99.9,-100.00,North,-999,-999.0,-999.0,-999,-99.99,,,-99.99,,2013-02-22 05:42:00,
2013-02-21 21:52:00,-999.0,-99.9,-100.00,West,281,3.0,-999.0,-999,-99.99,,,-99.99,,2013-02-22 05:52:00,
2013-02-21 22:01:00,42.0,14.0,-100.00,North,-999,-999.0,-999.0,31,-99.99,,,-99.99,,2013-02-22 06:01:00,
2013-02-21 22:11:00,41.0,13.0,-100.00,North,-999,-999.0,-999.0,32,-99.99,,,-99.99,,2013-02-22 06:11:00,
2013-02-21 22:21:00,41.0,13.0,-100.00,North,-999,-999.0,-999.0,32,-99.99,,,-99.99,,2013-02-22 06:21:00,
2013-02-21 23:01:00,41.0,-99.9,-100.00,North,-999,-999.0,-999.0,-999,-99.99,,,-99.99,,2013-02-22 07:01:00,
2013-02-21 23:32:00,-999.0,-99.9,-100.00,North,5,3.0,-999.0,-999,-99.99,,,-99.99,,2013-02-22 07:32:00,
2013-02-21 23:42:00,41.0,11.0,-100.00,North,-999,-999.0,-999.0,29,-99.99,,,-99.99,,2013-02-22 07:42:00,
2013-02-21 23:52:00,41.0,11.0,-100.00,North,-999,-999.0,-999.0,29,-99.99,,,-99.99,,2013-02-22 07:52:00,